Time;durP1;ratioP1;P1;durP2;ratioP2;P2;SDS_P1;SDS_P2;PMS_P1;PMS_P2;Temp;Humidity;BMP_temperature;BMP_pressure;BME280_temperature;BME280_humidity;BME280_pressure;Samples;Min_cycle;Max_cycle;Signal;HPM_P1;HPM_P2
2022/12/16 00:01:26;;;;;;;15.40;8.33;;;-4.10;99.90;;;;;;4958891;28;20211;-74
2022/12/16 00:03:55;;;;;;;17.13;8.80;;;-4.10;99.90;;;;;;4956517;28;20173;-73
2022/12/16 00:06:25;;;;;;;19.23;10.50;;;-4.10;99.90;;;;;;4959144;29;20247;-74
2022/12/16 00:08:53;;;;;;;15.00;8.57;;;-4.10;99.90;;;;;;4958408;28;20212;-74
2022/12/16 00:11:19;;;;;;;15.07;8.37;;;-4.10;99.90;;;;;;4957595;28;20199;-74
2022/12/16 00:13:46;;;;;;;18.07;9.47;;;-4.10;99.90;;;;;;4959173;29;20181;-74
2022/12/16 00:16:13;;;;;;;19.33;9.73;;;-4.20;99.90;;;;;;4956869;28;20180;-74
2022/12/16 00:18:42;;;;;;;16.33;9.53;;;-4.30;99.90;;;;;;4953373;28;20180;-74
2022/12/16 00:21:10;;;;;;;14.90;7.93;;;-4.30;99.90;;;;;;4961895;28;20271;-75
2022/12/16 00:23:40;;;;;;;17.93;9.67;;;-4.30;99.90;;;;;;4955242;28;20178;-75
2022/12/16 00:26:09;;;;;;;16.67;9.07;;;-4.30;99.90;;;;;;4946181;28;20181;-75
2022/12/16 00:28:37;;;;;;;17.90;9.43;;;-4.40;99.90;;;;;;4957217;28;20184;-74
2022/12/16 00:31:03;;;;;;;19.57;9.17;;;-4.40;99.90;;;;;;4960677;28;20189;-75
2022/12/16 00:33:31;;;;;;;17.83;9.33;;;-4.40;99.90;;;;;;4955309;29;20360;-74
2022/12/16 00:35:57;;;;;;;16.93;9.07;;;-4.50;99.90;;;;;;4941175;29;20184;-74
2022/12/16 00:38:27;;;;;;;20.70;11.33;;;-4.40;99.90;;;;;;4951591;28;20177;-74
2022/12/16 00:40:55;;;;;;;16.10;9.23;;;-4.40;99.90;;;;;;4958917;28;20291;-73
2022/12/16 00:43:23;;;;;;;18.70;9.43;;;-4.40;99.90;;;;;;4959406;28;20177;-74
2022/12/16 00:45:51;;;;;;;17.53;8.90;;;-4.50;99.90;;;;;;4955699;28;20184;-73
2022/12/16 00:48:17;;;;;;;12.83;7.67;;;-4.50;99.90;;;;;;4943739;29;20339;-73
2022/12/16 00:50:50;;;;;;;13.37;8.13;;;-4.50;99.90;;;;;;4957332;28;20208;-73
2022/12/16 00:53:19;;;;;;;16.33;8.57;;;-4.50;99.90;;;;;;4952027;29;20208;-74
2022/12/16 00:55:47;;;;;;;14.83;8.30;;;-4.50;99.90;;;;;;4957888;29;20277;-74
2022/12/16 00:58:13;;;;;;;14.57;8.17;;;-4.50;99.90;;;;;;4956264;28;20191;-73
2022/12/16 01:00:38;;;;;;;14.90;7.97;;;-4.50;99.90;;;;;;4948472;28;20379;-74
2022/12/16 01:03:04;;;;;;;13.30;6.80;;;-4.50;99.90;;;;;;4956679;28;20241;-74
2022/12/16 01:05:30;;;;;;;15.87;8.00;;;-4.50;99.90;;;;;;4951167;29;20201;-74
2022/12/16 01:07:56;;;;;;;12.27;6.80;;;-4.60;99.90;;;;;;4940492;29;20235;-75
2022/12/16 01:10:24;;;;;;;12.23;7.00;;;-4.60;99.90;;;;;;4939206;29;20187;-75
2022/12/16 01:12:50;;;;;;;12.20;7.30;;;-4.70;99.90;;;;;;4943712;28;20208;-74
2022/12/16 01:15:16;;;;;;;10.27;6.40;;;-4.80;99.90;;;;;;4961492;28;20186;-74
2022/12/16 01:17:43;;;;;;;11.10;7.27;;;-4.90;99.90;;;;;;4959433;28;20184;-73
2022/12/16 01:20:09;;;;;;;10.77;6.53;;;-4.90;99.90;;;;;;4960713;28;20200;-74
2022/12/16 01:22:36;;;;;;;12.53;6.37;;;-5.00;99.90;;;;;;4960331;28;20184;-74
2022/12/16 01:25:04;;;;;;;11.10;6.27;;;-5.00;99.90;;;;;;4959386;28;20205;-74
2022/12/16 01:27:32;;;;;;;11.50;6.70;;;-5.10;99.90;;;;;;4957004;29;20192;-74
2022/12/16 01:30:00;;;;;;;11.93;7.17;;;-5.20;99.90;;;;;;4959831;28;20200;-71
2022/12/16 01:32:26;;;;;;;10.53;6.70;;;-5.30;99.90;;;;;;4944515;29;20205;-71
2022/12/16 01:34:53;;;;;;;11.50;6.67;;;-5.30;99.90;;;;;;4957632;28;20180;-71
2022/12/16 01:37:19;;;;;;;11.57;6.77;;;-5.40;99.90;;;;;;4957641;28;20276;-71
2022/12/16 01:39:46;;;;;;;12.87;7.03;;;-5.40;99.90;;;;;;4953723;29;20232;-72
2022/12/16 01:42:18;;;;;;;12.70;6.97;;;-5.50;99.90;;;;;;4957593;29;20181;-71
2022/12/16 01:44:50;;;;;;;9.77;6.00;;;-5.50;99.90;;;;;;4960675;28;20267;-71
2022/12/16 01:47:19;;;;;;;9.83;6.37;;;-5.50;99.90;;;;;;4950043;29;20176;-71
2022/12/16 01:49:50;;;;;;;11.20;6.37;;;-5.50;99.90;;;;;;4945723;28;20468;-71
2022/12/16 01:52:25;;;;;;;12.67;7.07;;;-5.60;99.90;;;;;;4960753;28;20180;-70
2022/12/16 01:55:12;;;;;;;11.67;6.67;;;-5.60;99.90;;;;;;4957993;28;20195;-71
2022/12/16 01:58:04;;;;;;;10.37;6.40;;;-5.60;99.90;;;;;;4960788;28;20238;-71
2022/12/16 02:00:32;;;;;;;12.33;7.27;;;-5.60;99.90;;;;;;4960723;28;20250;-71
2022/12/16 02:02:59;;;;;;;15.53;8.20;;;-5.60;99.90;;;;;;4960383;28;20247;-71
2022/12/16 02:05:25;;;;;;;13.90;8.33;;;-5.50;99.90;;;;;;4957277;29;20224;-71
2022/12/16 02:07:54;;;;;;;13.47;7.87;;;-5.50;99.90;;;;;;4957841;28;20243;-71
2022/12/16 02:10:50;;;;;;;12.73;7.23;;;-5.50;99.90;;;;;;4956814;29;20216;-71
2022/12/16 02:13:57;;;;;;;12.73;6.93;;;-5.50;99.90;;;;;;4945426;28;20192;-71
2022/12/16 02:16:23;;;;;;;13.00;6.53;;;-5.50;99.90;;;;;;4879847;29;20241;-72
2022/12/16 02:19:18;;;;;;;13.03;7.37;;;-5.40;99.90;;;;;;4941229;28;20208;-72
2022/12/16 02:21:55;;;;;;;9.73;5.80;;;-5.40;99.90;;;;;;4955819;28;20192;-71
2022/12/16 02:24:35;;;;;;;12.67;6.77;;;-5.40;99.90;;;;;;4956276;29;20204;-72
2022/12/16 02:27:19;;;;;;;10.77;6.47;;;-5.40;99.90;;;;;;4970714;28;20252;-71
2022/12/16 02:30:06;;;;;;;10.67;6.60;;;-5.30;99.90;;;;;;4960213;28;20211;-71
2022/12/16 02:32:53;;;;;;;11.23;6.40;;;-5.40;99.90;;;;;;4957012;28;20196;-71
2022/12/16 02:35:34;;;;;;;12.20;7.20;;;-5.40;99.90;;;;;;4962002;28;20349;-71
2022/12/16 02:38:20;;;;;;;13.07;7.13;;;-5.40;99.90;;;;;;4957827;28;20240;-71
2022/12/16 02:41:04;;;;;;;10.70;6.47;;;-5.40;99.90;;;;;;4975799;28;20188;-71
2022/12/16 02:43:49;;;;;;;11.07;6.17;;;-5.40;99.90;;;;;;4945337;29;20252;-71
2022/12/16 02:46:20;;;;;;;10.50;6.23;;;-5.40;99.90;;;;;;4956191;28;20187;-72
2022/12/16 02:48:46;;;;;;;10.57;6.37;;;-5.40;99.90;;;;;;4951123;28;20205;-71
2022/12/16 02:51:12;;;;;;;9.27;5.57;;;-5.40;99.90;;;;;;4952292;28;20279;-71
2022/12/16 02:53:43;;;;;;;9.37;5.67;;;-5.40;99.90;;;;;;4947923;28;20259;-72
2022/12/16 02:56:38;;;;;;;11.10;5.63;;;-5.50;99.90;;;;;;4959783;28;20164;-72
2022/12/16 02:59:23;;;;;;;9.93;5.93;;;-5.50;99.90;;;;;;4969951;28;20265;-71
2022/12/16 03:02:14;;;;;;;9.10;5.50;;;-5.50;99.90;;;;;;4964535;28;20204;-71
2022/12/16 03:04:42;;;;;;;8.57;5.13;;;-5.60;99.90;;;;;;4956295;29;20235;-71
2022/12/16 03:07:13;;;;;;;9.00;4.90;;;-5.60;99.90;;;;;;4958996;28;20186;-70
2022/12/16 03:09:40;;;;;;;9.63;5.47;;;-5.60;99.90;;;;;;4956248;29;20215;-70
2022/12/16 03:12:13;;;;;;;9.73;5.47;;;-5.60;99.90;;;;;;4958842;28;20180;-71
2022/12/16 03:14:42;;;;;;;8.83;5.07;;;-5.70;99.90;;;;;;4955670;28;20192;-71
2022/12/16 03:17:11;;;;;;;8.97;5.03;;;-5.70;99.90;;;;;;4959103;28;20179;-70
2022/12/16 03:19:44;;;;;;;9.40;5.60;;;-5.70;99.90;;;;;;4956107;29;20200;-70
2022/12/16 03:22:19;;;;;;;10.43;5.67;;;-5.70;99.90;;;;;;4959743;28;20168;-71
2022/12/16 03:24:47;;;;;;;8.80;5.43;;;-5.70;99.90;;;;;;4954898;29;20176;-71
2022/12/16 03:27:33;;;;;;;10.33;5.73;;;-5.70;99.90;;;;;;4959930;28;20207;-71
2022/12/16 03:30:08;;;;;;;8.57;5.17;;;-5.70;99.90;;;;;;4962570;28;20168;-70
2022/12/16 03:32:39;;;;;;;8.50;5.07;;;-5.70;99.90;;;;;;4956054;29;20184;-70
2022/12/16 03:35:12;;;;;;;9.70;5.97;;;-5.70;99.90;;;;;;4960524;28;20203;-71
2022/12/16 03:37:43;;;;;;;7.67;5.17;;;-5.80;99.90;;;;;;4968660;28;20463;-71
2022/12/16 03:40:10;;;;;;;10.53;5.27;;;-5.80;99.90;;;;;;4959363;28;20246;-70
2022/12/16 03:42:38;;;;;;;9.33;5.30;;;-5.80;99.90;;;;;;4943536;29;20177;-71
2022/12/16 03:45:07;;;;;;;9.30;5.70;;;-5.80;99.90;;;;;;4938849;29;20241;-70
2022/12/16 03:47:33;;;;;;;8.33;4.80;;;-5.80;99.90;;;;;;4954215;28;20271;-70
2022/12/16 03:49:58;;;;;;;8.60;5.30;;;-5.80;99.90;;;;;;4953353;28;20181;-72
2022/12/16 03:52:24;;;;;;;7.73;4.93;;;-5.90;99.90;;;;;;4942540;29;20177;-72
2022/12/16 03:54:50;;;;;;;8.77;5.13;;;-5.90;99.90;;;;;;4950564;28;20219;-72
2022/12/16 03:57:18;;;;;;;12.40;6.83;;;-5.90;99.90;;;;;;4958609;28;20176;-72
2022/12/16 03:59:43;;;;;;;11.10;6.83;;;-5.80;99.90;;;;;;4958674;28;20207;-70
2022/12/16 04:02:13;;;;;;;13.63;8.10;;;-5.90;99.90;;;;;;4959158;28;20176;-71
2022/12/16 04:04:39;;;;;;;13.40;7.60;;;-6.00;99.90;;;;;;4958948;28;20172;-71
2022/12/16 04:07:19;;;;;;;15.67;7.97;;;-6.00;99.90;;;;;;4958061;28;20295;-71
2022/12/16 04:09:49;;;;;;;20.70;11.30;;;-6.00;99.90;;;;;;4958117;28;20190;-71
2022/12/16 04:24:18;;;;;;;16.60;9.47;;;-6.10;99.90;;;;;;4974520;28;20220;-71
2022/12/16 04:24:28;;;;;;;19.73;11.13;;;-6.10;99.90;;;;;;4975163;28;20459;-71
2022/12/16 04:29:24;;;;;;;21.50;12.20;;;-6.20;99.90;;;;;;4973337;28;20182;-72
2022/12/16 04:31:51;;;;;;;22.77;11.97;;;-6.20;99.90;;;;;;4955404;28;20184;-71
2022/12/16 04:34:26;;;;;;;18.43;10.50;;;-6.20;99.90;;;;;;4955432;28;20251;-71
